Aviation Digital Data Service (ADDS)

Output produced by METARs form (0025 UTC 20 April 2019)
found at http://www.aviationweather.gov/metar/data/
 
METAR text: RORY 200000Z AUTO 11011KT 9999 FEW025 BKN110 23/18 Q1013
Conditions at: RORY (YORON ISLAND , JP) observed 0000 UTC 20 April 2019
Temperature: 23.0°C (73°F)
Dewpoint: 18.0°C (64°F) [RH = 73%]
Pressure (altimeter): 29.91 inches Hg (1013.0 mb)
Winds: from the ESE (110 degrees) at 13 MPH (11 knots; 5.7 m/s)
Visibility: 6 or more miles (10+ km)
Ceiling: 11000 feet AGL
Clouds: few clouds at 2500 feet AGL
broken clouds at 11000 feet AGL
Weather: no significant weather observed at this time

METAR text: RORY 192300Z AUTO 10009KT 9999 FEW023 SCT140 BKN150 22/18 Q1012
Conditions at: RORY (YORON ISLAND , JP) observed 2300 UTC 19 April 2019
Temperature: 22.0°C (72°F)
Dewpoint: 18.0°C (64°F) [RH = 78%]
Pressure (altimeter): 29.88 inches Hg (1012.0 mb)
Winds: from the E (100 degrees) at 10 MPH (9 knots; 4.6 m/s)
Visibility: 6 or more miles (10+ km)
Ceiling: 15000 feet AGL
Clouds: few clouds at 2300 feet AGL
scattered clouds at 14000 feet AGL
broken clouds at 15000 feet AGL
Weather: no significant weather observed at this time

METAR text: RORY 192200Z AUTO 10006KT 9999 NSC 21/18 Q1012
Conditions at: RORY (YORON ISLAND , JP) observed 2200 UTC 19 April 2019
Temperature: 21.0°C (70°F)
Dewpoint: 18.0°C (64°F) [RH = 83%]
Pressure (altimeter): 29.88 inches Hg (1012.0 mb)
Winds: from the E (100 degrees) at 7 MPH (6 knots; 3.1 m/s)
Visibility: 6 or more miles (10+ km)
Ceiling: at least 12,000 feet AGL
Clouds: sky clear below 12,000 feet AGL
Weather: no significant weather observed at this time

METAR text: RORY 192100Z AUTO 11005KT 9999 NSC 21/18 Q1012
Conditions at: RORY (YORON ISLAND , JP) observed 2100 UTC 19 April 2019
Temperature: 21.0°C (70°F)
Dewpoint: 18.0°C (64°F) [RH = 83%]
Pressure (altimeter): 29.88 inches Hg (1012.0 mb)
Winds: from the ESE (110 degrees) at 6 MPH (5 knots; 2.6 m/s)
Visibility: 6 or more miles (10+ km)
Ceiling: at least 12,000 feet AGL
Clouds: sky clear below 12,000 feet AGL
Weather: no significant weather observed at this time

METAR text: RORY 192000Z AUTO 10005KT 9999 NSC 20/18 Q1012
Conditions at: RORY (YORON ISLAND , JP) observed 2000 UTC 19 April 2019
Temperature: 20.0°C (68°F)
Dewpoint: 18.0°C (64°F) [RH = 88%]
Pressure (altimeter): 29.88 inches Hg (1012.0 mb)
Winds: from the E (100 degrees) at 6 MPH (5 knots; 2.6 m/s)
Visibility: 6 or more miles (10+ km)
Ceiling: at least 12,000 feet AGL
Clouds: sky clear below 12,000 feet AGL
Weather: no significant weather observed at this time

METAR text: RORY 191900Z AUTO 10004KT 9999 FEW023 OVC180 21/18 Q1012
Conditions at: RORY (YORON ISLAND , JP) observed 1900 UTC 19 April 2019
Temperature: 21.0°C (70°F)
Dewpoint: 18.0°C (64°F) [RH = 83%]
Pressure (altimeter): 29.88 inches Hg (1012.0 mb)
Winds: from the E (100 degrees) at 5 MPH (4 knots; 2.1 m/s)
Visibility: 6 or more miles (10+ km)
Ceiling: 18000 feet AGL
Clouds: few clouds at 2300 feet AGL
overcast cloud deck at 18000 feet AGL
Weather: no significant weather observed at this time

METAR text: RORY 191800Z AUTO 11004KT 9999 FEW023 OVC170 21/17 Q1013
Conditions at: RORY (YORON ISLAND , JP) observed 1800 UTC 19 April 2019
Temperature: 21.0°C (70°F)
Dewpoint: 17.0°C (63°F) [RH = 78%]
Pressure (altimeter): 29.91 inches Hg (1013.0 mb)
Winds: from the ESE (110 degrees) at 5 MPH (4 knots; 2.1 m/s)
Visibility: 6 or more miles (10+ km)
Ceiling: 17000 feet AGL
Clouds: few clouds at 2300 feet AGL
overcast cloud deck at 17000 feet AGL
Weather: no significant weather observed at this time

METAR text: RORY 191700Z AUTO 14007KT 9999 NSC 21/17 Q1013
Conditions at: RORY (YORON ISLAND , JP) observed 1700 UTC 19 April 2019
Temperature: 21.0°C (70°F)
Dewpoint: 17.0°C (63°F) [RH = 78%]
Pressure (altimeter): 29.91 inches Hg (1013.0 mb)
Winds: from the SE (140 degrees) at 8 MPH (7 knots; 3.6 m/s)
Visibility: 6 or more miles (10+ km)
Ceiling: at least 12,000 feet AGL
Clouds: sky clear below 12,000 feet AGL
Weather: no significant weather observed at this time

METAR text: RORY 191600Z AUTO 13005KT 9999 NSC 21/18 Q1013
Conditions at: RORY (YORON ISLAND , JP) observed 1600 UTC 19 April 2019
Temperature: 21.0°C (70°F)
Dewpoint: 18.0°C (64°F) [RH = 83%]
Pressure (altimeter): 29.91 inches Hg (1013.0 mb)
Winds: from the SE (130 degrees) at 6 MPH (5 knots; 2.6 m/s)
Visibility: 6 or more miles (10+ km)
Ceiling: at least 12,000 feet AGL
Clouds: sky clear below 12,000 feet AGL
Weather: no significant weather observed at this time

METAR text: RORY 191500Z AUTO 13006KT 9999 NSC 22/18 Q1013
Conditions at: RORY (YORON ISLAND , JP) observed 1500 UTC 19 April 2019
Temperature: 22.0°C (72°F)
Dewpoint: 18.0°C (64°F) [RH = 78%]
Pressure (altimeter): 29.91 inches Hg (1013.0 mb)
Winds: from the SE (130 degrees) at 7 MPH (6 knots; 3.1 m/s)
Visibility: 6 or more miles (10+ km)
Ceiling: at least 12,000 feet AGL
Clouds: sky clear below 12,000 feet AGL
Weather: no significant weather observed at this time

METAR text: RORY 191400Z AUTO 13007KT 9999 NSC 22/17 Q1013
Conditions at: RORY (YORON ISLAND , JP) observed 1400 UTC 19 April 2019
Temperature: 22.0°C (72°F)
Dewpoint: 17.0°C (63°F) [RH = 73%]
Pressure (altimeter): 29.91 inches Hg (1013.0 mb)
Winds: from the SE (130 degrees) at 8 MPH (7 knots; 3.6 m/s)
Visibility: 6 or more miles (10+ km)
Ceiling: at least 12,000 feet AGL
Clouds: sky clear below 12,000 feet AGL
Weather: no significant weather observed at this time

METAR text: RORY 191300Z AUTO 13008KT 9999 FEW026 OVC180 22/17 Q1013
Conditions at: RORY (YORON ISLAND , JP) observed 1300 UTC 19 April 2019
Temperature: 22.0°C (72°F)
Dewpoint: 17.0°C (63°F) [RH = 73%]
Pressure (altimeter): 29.91 inches Hg (1013.0 mb)
Winds: from the SE (130 degrees) at 9 MPH (8 knots; 4.1 m/s)
Visibility: 6 or more miles (10+ km)
Ceiling: 18000 feet AGL
Clouds: few clouds at 2600 feet AGL
overcast cloud deck at 18000 feet AGL
Weather: no significant weather observed at this time

METAR text: RORY 191200Z AUTO 12005KT 9999 NSC 21/17 Q1013
Conditions at: RORY (YORON ISLAND , JP) observed 1200 UTC 19 April 2019
Temperature: 21.0°C (70°F)
Dewpoint: 17.0°C (63°F) [RH = 78%]
Pressure (altimeter): 29.91 inches Hg (1013.0 mb)
Winds: from the ESE (120 degrees) at 6 MPH (5 knots; 2.6 m/s)
Visibility: 6 or more miles (10+ km)
Ceiling: at least 12,000 feet AGL
Clouds: sky clear below 12,000 feet AGL
Weather: no significant weather observed at this time

METAR text: RORY 191100Z AUTO 13005KT 9999 NSC 21/17 Q1013
Conditions at: RORY (YORON ISLAND , JP) observed 1100 UTC 19 April 2019
Temperature: 21.0°C (70°F)
Dewpoint: 17.0°C (63°F) [RH = 78%]
Pressure (altimeter): 29.91 inches Hg (1013.0 mb)
Winds: from the SE (130 degrees) at 6 MPH (5 knots; 2.6 m/s)
Visibility: 6 or more miles (10+ km)
Ceiling: at least 12,000 feet AGL
Clouds: sky clear below 12,000 feet AGL
Weather: no significant weather observed at this time

METAR text: RORY 191000Z AUTO 16007KT 9999 SCT023 SCT026 BKN029 22/18 Q1013
Conditions at: RORY (YORON ISLAND , JP) observed 1000 UTC 19 April 2019
Temperature: 22.0°C (72°F)
Dewpoint: 18.0°C (64°F) [RH = 78%]
Pressure (altimeter): 29.91 inches Hg (1013.0 mb)
Winds: from the SSE (160 degrees) at 8 MPH (7 knots; 3.6 m/s)
Visibility: 6 or more miles (10+ km)
Ceiling: 2900 feet AGL
Clouds: scattered clouds at 2300 feet AGL
scattered clouds at 2600 feet AGL
broken clouds at 2900 feet AGL
Weather: no significant weather observed at this time

METAR text: RORY 190900Z AUTO 14006KT 9999 NSC 22/17 Q1012
Conditions at: RORY (YORON ISLAND , JP) observed 0900 UTC 19 April 2019
Temperature: 22.0°C (72°F)
Dewpoint: 17.0°C (63°F) [RH = 73%]
Pressure (altimeter): 29.88 inches Hg (1012.0 mb)
Winds: from the SE (140 degrees) at 7 MPH (6 knots; 3.1 m/s)
Visibility: 6 or more miles (10+ km)
Ceiling: at least 12,000 feet AGL
Clouds: sky clear below 12,000 feet AGL
Weather: no significant weather observed at this time

METAR text: RORY 190800Z AUTO 15006KT 9999 FEW023 BKN200 23/18 Q1012
Conditions at: RORY (YORON ISLAND , JP) observed 0800 UTC 19 April 2019
Temperature: 23.0°C (73°F)
Dewpoint: 18.0°C (64°F) [RH = 73%]
Pressure (altimeter): 29.88 inches Hg (1012.0 mb)
Winds: from the SSE (150 degrees) at 7 MPH (6 knots; 3.1 m/s)
Visibility: 6 or more miles (10+ km)
Ceiling: 20000 feet AGL
Clouds: few clouds at 2300 feet AGL
broken clouds at 20000 feet AGL
Weather: no significant weather observed at this time

METAR text: RORY 190700Z AUTO 15008KT 9999 NSC 23/18 Q1012
Conditions at: RORY (YORON ISLAND , JP) observed 0700 UTC 19 April 2019
Temperature: 23.0°C (73°F)
Dewpoint: 18.0°C (64°F) [RH = 73%]
Pressure (altimeter): 29.88 inches Hg (1012.0 mb)
Winds: from the SSE (150 degrees) at 9 MPH (8 knots; 4.1 m/s)
Visibility: 6 or more miles (10+ km)
Ceiling: at least 12,000 feet AGL
Clouds: sky clear below 12,000 feet AGL
Weather: no significant weather observed at this time

METAR text: RORY 190600Z AUTO 16007KT 9999 NSC 24/18 Q1013
Conditions at: RORY (YORON ISLAND , JP) observed 0600 UTC 19 April 2019
Temperature: 24.0°C (75°F)
Dewpoint: 18.0°C (64°F) [RH = 69%]
Pressure (altimeter): 29.91 inches Hg (1013.0 mb)
Winds: from the SSE (160 degrees) at 8 MPH (7 knots; 3.6 m/s)
Visibility: 6 or more miles (10+ km)
Ceiling: at least 12,000 feet AGL
Clouds: sky clear below 12,000 feet AGL
Weather: no significant weather observed at this time

METAR text: RORY 190500Z AUTO 16008KT 9999 FEW023 SCT230 24/18 Q1014
Conditions at: RORY (YORON ISLAND , JP) observed 0500 UTC 19 April 2019
Temperature: 24.0°C (75°F)
Dewpoint: 18.0°C (64°F) [RH = 69%]
Pressure (altimeter): 29.94 inches Hg (1014.0 mb)
Winds: from the SSE (160 degrees) at 9 MPH (8 knots; 4.1 m/s)
Visibility: 6 or more miles (10+ km)
Ceiling: at least 12,000 feet AGL
Clouds: few clouds at 2300 feet AGL
scattered clouds at 23000 feet AGL
Weather: no significant weather observed at this time

METAR text: RORY 190400Z AUTO 15006KT 120V190 9999 NSC 24/17 Q1014
Conditions at: RORY (YORON ISLAND , JP) observed 0400 UTC 19 April 2019
Temperature: 24.0°C (75°F)
Dewpoint: 17.0°C (63°F) [RH = 65%]
Pressure (altimeter): 29.94 inches Hg (1014.0 mb)
Winds: from the SSE (150 degrees) at 7 MPH (6 knots; 3.1 m/s)
Visibility: 6 or more miles (10+ km)
Ceiling: at least 12,000 feet AGL
Clouds: sky clear below 12,000 feet AGL
Weather: no significant weather observed at this time

METAR text: RORY 190300Z AUTO 16007KT 9999 NSC 24/17 Q1014
Conditions at: RORY (YORON ISLAND , JP) observed 0300 UTC 19 April 2019
Temperature: 24.0°C (75°F)
Dewpoint: 17.0°C (63°F) [RH = 65%]
Pressure (altimeter): 29.94 inches Hg (1014.0 mb)
Winds: from the SSE (160 degrees) at 8 MPH (7 knots; 3.6 m/s)
Visibility: 6 or more miles (10+ km)
Ceiling: at least 12,000 feet AGL
Clouds: sky clear below 12,000 feet AGL
Weather: no significant weather observed at this time

METAR text: RORY 190200Z AUTO 17006KT 130V200 9999 NCD 25/14 Q1015
Conditions at: RORY (YORON ISLAND , JP) observed 0200 UTC 19 April 2019
Temperature: 25.0°C (77°F)
Dewpoint: 14.0°C (57°F) [RH = 50%]
Pressure (altimeter): 29.97 inches Hg (1015.0 mb)
Winds: from the S (170 degrees) at 7 MPH (6 knots; 3.1 m/s)
Visibility: 6 or more miles (10+ km)
Ceiling: at least 12,000 feet AGL
Clouds: sky clear below 12,000 feet AGL
Weather: no significant weather observed at this time

METAR text: RORY 190100Z AUTO 17008KT 9999 NCD 24/16 Q1015
Conditions at: RORY (YORON ISLAND , JP) observed 0100 UTC 19 April 2019
Temperature: 24.0°C (75°F)
Dewpoint: 16.0°C (61°F) [RH = 61%]
Pressure (altimeter): 29.97 inches Hg (1015.0 mb)
Winds: from the S (170 degrees) at 9 MPH (8 knots; 4.1 m/s)
Visibility: 6 or more miles (10+ km)
Ceiling: at least 12,000 feet AGL
Clouds: sky clear below 12,000 feet AGL
Weather: no significant weather observed at this time

METAR text: RORY 190000Z AUTO 19006KT 150V220 9999 FEW049 25/18 Q1014
Conditions at: RORY (YORON ISLAND , JP) observed 0000 UTC 19 April 2019
Temperature: 25.0°C (77°F)
Dewpoint: 18.0°C (64°F) [RH = 65%]
Pressure (altimeter): 29.94 inches Hg (1014.0 mb)
Winds: from the S (190 degrees) at 7 MPH (6 knots; 3.1 m/s)
Visibility: 6 or more miles (10+ km)
Ceiling: at least 12,000 feet AGL
Clouds: few clouds at 4900 feet AGL
Weather: no significant weather observed at this time

METAR text: RORY 182300Z AUTO 20004KT 160V230 9999 FEW029 SCT036 BKN039 22/18 Q1014
Conditions at: RORY (YORON ISLAND , JP) observed 2300 UTC 18 April 2019
Temperature: 22.0°C (72°F)
Dewpoint: 18.0°C (64°F) [RH = 78%]
Pressure (altimeter): 29.94 inches Hg (1014.0 mb)
Winds: from the SSW (200 degrees) at 5 MPH (4 knots; 2.1 m/s)
Visibility: 6 or more miles (10+ km)
Ceiling: 3900 feet AGL
Clouds: few clouds at 2900 feet AGL
scattered clouds at 3600 feet AGL
broken clouds at 3900 feet AGL
Weather: no significant weather observed at this time

METAR text: RORY 182200Z AUTO 00000KT 9999 FEW027 SCT035 BKN037 21/18 Q1014
Conditions at: RORY (YORON ISLAND , JP) observed 2200 UTC 18 April 2019
Temperature: 21.0°C (70°F)
Dewpoint: 18.0°C (64°F) [RH = 83%]
Pressure (altimeter): 29.94 inches Hg (1014.0 mb)
Winds: calm
Visibility: 6 or more miles (10+ km)
Ceiling: 3700 feet AGL
Clouds: few clouds at 2700 feet AGL
scattered clouds at 3500 feet AGL
broken clouds at 3700 feet AGL
Weather: no significant weather observed at this time

METAR text: RORY 182100Z AUTO 00000KT 9999 FEW027 19/16 Q1013
Conditions at: RORY (YORON ISLAND , JP) observed 2100 UTC 18 April 2019
Temperature: 19.0°C (66°F)
Dewpoint: 16.0°C (61°F) [RH = 83%]
Pressure (altimeter): 29.91 inches Hg (1013.0 mb)
Winds: calm
Visibility: 6 or more miles (10+ km)
Ceiling: at least 12,000 feet AGL
Clouds: few clouds at 2700 feet AGL
Weather: no significant weather observed at this time

METAR text: RORY 182000Z AUTO VRB01KT 9999 FEW026 18/16 Q1013
Conditions at: RORY (YORON ISLAND , JP) observed 2000 UTC 18 April 2019
Temperature: 18.0°C (64°F)
Dewpoint: 16.0°C (61°F) [RH = 88%]
Pressure (altimeter): 29.91 inches Hg (1013.0 mb)
Winds: variable direction winds at 1 MPH (1 knots; 0.5 m/s)
Visibility: 6 or more miles (10+ km)
Ceiling: at least 12,000 feet AGL
Clouds: few clouds at 2600 feet AGL
Weather: no significant weather observed at this time

METAR text: RORY 181900Z AUTO 17003KT 9999 NCD 20/16 Q1013
Conditions at: RORY (YORON ISLAND , JP) observed 1900 UTC 18 April 2019
Temperature: 20.0°C (68°F)
Dewpoint: 16.0°C (61°F) [RH = 78%]
Pressure (altimeter): 29.91 inches Hg (1013.0 mb)
Winds: from the S (170 degrees) at 3 MPH (3 knots; 1.5 m/s)
Visibility: 6 or more miles (10+ km)
Ceiling: at least 12,000 feet AGL
Clouds: sky clear below 12,000 feet AGL
Weather: no significant weather observed at this time

METAR text: RORY 181800Z AUTO 17005KT 9999 NCD 21/16 Q1013
Conditions at: RORY (YORON ISLAND , JP) observed 1800 UTC 18 April 2019
Temperature: 21.0°C (70°F)
Dewpoint: 16.0°C (61°F) [RH = 73%]
Pressure (altimeter): 29.91 inches Hg (1013.0 mb)
Winds: from the S (170 degrees) at 6 MPH (5 knots; 2.6 m/s)
Visibility: 6 or more miles (10+ km)
Ceiling: at least 12,000 feet AGL
Clouds: sky clear below 12,000 feet AGL
Weather: no significant weather observed at this time

METAR text: RORY 181700Z AUTO 17005KT 9999 FEW027 21/17 Q1014
Conditions at: RORY (YORON ISLAND , JP) observed 1700 UTC 18 April 2019
Temperature: 21.0°C (70°F)
Dewpoint: 17.0°C (63°F) [RH = 78%]
Pressure (altimeter): 29.94 inches Hg (1014.0 mb)
Winds: from the S (170 degrees) at 6 MPH (5 knots; 2.6 m/s)
Visibility: 6 or more miles (10+ km)
Ceiling: at least 12,000 feet AGL
Clouds: few clouds at 2700 feet AGL
Weather: no significant weather observed at this time

METAR text: RORY 181600Z AUTO 17006KT 9999 SCT027 21/17 Q1014
Conditions at: RORY (YORON ISLAND , JP) observed 1600 UTC 18 April 2019
Temperature: 21.0°C (70°F)
Dewpoint: 17.0°C (63°F) [RH = 78%]
Pressure (altimeter): 29.94 inches Hg (1014.0 mb)
Winds: from the S (170 degrees) at 7 MPH (6 knots; 3.1 m/s)
Visibility: 6 or more miles (10+ km)
Ceiling: at least 12,000 feet AGL
Clouds: scattered clouds at 2700 feet AGL
Weather: no significant weather observed at this time

METAR text: RORY 181500Z AUTO 16007KT 9999 SCT026 22/17 Q1014
Conditions at: RORY (YORON ISLAND , JP) observed 1500 UTC 18 April 2019
Temperature: 22.0°C (72°F)
Dewpoint: 17.0°C (63°F) [RH = 73%]
Pressure (altimeter): 29.94 inches Hg (1014.0 mb)
Winds: from the SSE (160 degrees) at 8 MPH (7 knots; 3.6 m/s)
Visibility: 6 or more miles (10+ km)
Ceiling: at least 12,000 feet AGL
Clouds: scattered clouds at 2600 feet AGL
Weather: no significant weather observed at this time

METAR text: RORY 181400Z AUTO 17007KT 9999 NCD 22/17 Q1014
Conditions at: RORY (YORON ISLAND , JP) observed 1400 UTC 18 April 2019
Temperature: 22.0°C (72°F)
Dewpoint: 17.0°C (63°F) [RH = 73%]
Pressure (altimeter): 29.94 inches Hg (1014.0 mb)
Winds: from the S (170 degrees) at 8 MPH (7 knots; 3.6 m/s)
Visibility: 6 or more miles (10+ km)
Ceiling: at least 12,000 feet AGL
Clouds: sky clear below 12,000 feet AGL
Weather: no significant weather observed at this time